Adams, North Dakota
Current Conditions -  °F | °C
As of 3:55 PM on Monday 22 Dec 2014 (Local Time) from KD55 Reporting Station
Moderate Fog Moderate Fog  
Wind Chill: 23°   Ceiling: 100
Heat Index: 32°   Visibility: 0.5mi
Dew Point: 32°   Wind: 12mph
Humidity: 100%   Direction: 40°NE
Pressure: 29.61"   Gusts: NA
Location:  48.42°N, 98.08°W
Report Text: KD55 222155Z AUTO 04010KT 1/2SM FG OVC001 00/00 A2961 RMK AO2
Loading
Personal Weather Stations






























Interactive Weather Map New forecast layout! Learn more

10-Day Weather Forecast

Advertisements
Track Severe Weather on mobile